createdAt,value
2023-04-02T00:01:41.022Z,14.30
2023-04-02T00:04:26.549Z,14.70
2023-04-02T00:07:30.906Z,14.50
2023-04-02T00:10:27.904Z,13.60
2023-04-02T00:13:33.420Z,13.90
2023-04-02T00:16:15.600Z,14.90
2023-04-02T00:18:55.935Z,14.70
2023-04-02T00:21:35.599Z,15.90
2023-04-02T00:24:23.105Z,14.60
2023-04-02T00:27:01.216Z,15.00
2023-04-02T00:29:37.371Z,14.70
2023-04-02T00:32:23.795Z,14.70
2023-04-02T00:34:59.884Z,14.80
2023-04-02T00:37:42.735Z,15.00
2023-04-02T00:40:29.073Z,15.70
2023-04-02T00:43:08.482Z,16.00
2023-04-02T00:45:51.235Z,16.90
2023-04-02T00:48:48.881Z,15.70
2023-04-02T00:51:29.612Z,15.90
2023-04-02T00:54:16.154Z,16.40
2023-04-02T00:56:55.689Z,16.30
2023-04-02T00:59:34.582Z,16.60
2023-04-02T01:02:42.942Z,17.60
2023-04-02T01:05:36.416Z,16.80
2023-04-02T01:08:26.532Z,15.80
2023-04-02T01:11:20.400Z,15.40
2023-04-02T01:14:09.306Z,16.00
2023-04-02T01:16:56.166Z,15.40
2023-04-02T01:20:32.975Z,16.00
2023-04-02T01:23:17.095Z,14.60
2023-04-02T01:26:02.409Z,16.00
2023-04-02T01:28:49.445Z,16.40
2023-04-02T01:31:27.445Z,15.80
2023-04-02T01:34:04.666Z,17.80
2023-04-02T01:36:54.647Z,16.80
2023-04-02T01:39:51.268Z,15.40
2023-04-02T01:42:37.429Z,16.70
2023-04-02T01:45:20.496Z,15.40
2023-04-02T01:47:56.698Z,16.60
2023-04-02T01:50:37.542Z,16.20
2023-04-02T01:53:18.604Z,17.80
2023-04-02T01:55:57.523Z,18.20
2023-04-02T01:58:36.486Z,16.70
2023-04-02T02:01:20.242Z,16.80
2023-04-02T02:03:58.679Z,18.20
2023-04-02T02:06:35.516Z,18.30
2023-04-02T02:09:17.436Z,15.60
2023-04-02T02:11:54.470Z,16.40
2023-04-02T02:14:31.955Z,16.20
2023-04-02T02:17:13.816Z,17.00
2023-04-02T02:19:54.246Z,16.80
2023-04-02T02:22:36.405Z,15.10
2023-04-02T02:25:19.709Z,14.90
2023-04-02T02:28:24.208Z,16.30
2023-04-02T02:31:05.421Z,11.40
2023-04-02T02:33:50.482Z,11.90
2023-04-02T02:36:35.953Z,11.60
2023-04-02T02:39:24.196Z,9.10
2023-04-02T02:42:03.746Z,10.00
2023-04-02T02:44:47.013Z,8.30
2023-04-02T02:47:28.323Z,9.50
2023-04-02T02:50:10.194Z,10.70
2023-04-02T02:52:54.751Z,13.00
2023-04-02T02:55:38.223Z,14.90
2023-04-02T02:58:31.554Z,13.60
2023-04-02T03:01:20.748Z,14.90
2023-04-02T03:03:59.090Z,16.10
2023-04-02T03:06:37.037Z,15.20
2023-04-02T03:09:25.104Z,16.10
2023-04-02T03:12:12.540Z,17.20
2023-04-02T03:14:55.766Z,20.90
2023-04-02T03:17:39.505Z,16.90
2023-04-02T03:20:24.953Z,17.40
2023-04-02T03:23:09.411Z,17.90
2023-04-02T03:25:55.599Z,20.00
2023-04-02T03:28:38.189Z,18.60
2023-04-02T03:31:20.174Z,20.80
2023-04-02T03:34:01.233Z,21.20
2023-04-02T03:36:46.795Z,19.40
2023-04-02T03:39:33.411Z,19.00
2023-04-02T03:42:16.783Z,22.70
2023-04-02T03:45:02.967Z,20.60
2023-04-02T03:47:46.873Z,20.10
2023-04-02T03:50:31.981Z,21.70
2023-04-02T03:53:11.060Z,21.90
2023-04-02T03:55:49.165Z,23.00
2023-04-02T03:58:36.218Z,19.60
2023-04-02T04:01:23.426Z,19.00
2023-04-02T04:04:07.877Z,19.60
2023-04-02T04:06:48.347Z,19.60
2023-04-02T04:09:32.076Z,21.10
2023-04-02T04:12:24.838Z,19.50
2023-04-02T04:15:09.306Z,19.10
2023-04-02T04:18:02.730Z,17.10
2023-04-02T04:20:56.681Z,21.40
2023-04-02T04:23:39.396Z,21.40
2023-04-02T04:26:31.243Z,20.90
2023-04-02T04:29:28.028Z,9.40
2023-04-02T04:32:19.142Z,5.30
2023-04-02T04:34:58.540Z,3.90
2023-04-02T04:37:43.425Z,3.90
2023-04-02T04:40:27.309Z,4.20
2023-04-02T04:43:10.254Z,4.10
2023-04-02T04:45:54.067Z,3.70
2023-04-02T04:48:37.397Z,4.40
2023-04-02T04:51:23.654Z,4.40
2023-04-02T04:54:00.659Z,11.00
2023-04-02T04:56:39.868Z,15.50
2023-04-02T04:59:28.202Z,16.90
2023-04-02T05:02:14.297Z,17.80
2023-04-02T05:04:54.500Z,19.80
2023-04-02T05:07:45.789Z,19.60
2023-04-02T05:10:33.155Z,17.90
2023-04-02T05:13:18.732Z,19.70
2023-04-02T05:16:04.214Z,20.40
2023-04-02T05:18:47.441Z,19.80
2023-04-02T05:21:30.712Z,19.20
2023-04-02T05:24:37.724Z,18.80
2023-04-02T05:27:38.580Z,18.50
2023-04-02T05:30:47.311Z,17.20
2023-04-02T05:33:29.372Z,19.10
2023-04-02T05:36:11.862Z,21.00
2023-04-02T05:38:56.442Z,18.10
2023-04-02T05:42:04.331Z,17.30
2023-04-02T05:45:03.148Z,18.50
2023-04-02T05:47:43.523Z,18.10
2023-04-02T05:50:40.881Z,18.00
2023-04-02T05:53:27.939Z,17.20
2023-04-02T05:56:10.102Z,17.40
2023-04-02T05:58:52.572Z,18.40
2023-04-02T06:01:48.394Z,16.80
2023-04-02T06:04:46.821Z,16.80
2023-04-02T06:07:30.423Z,17.00
2023-04-02T06:10:15.301Z,16.20
2023-04-02T06:12:58.428Z,15.00
2023-04-02T06:15:37.281Z,17.50
2023-04-02T06:18:25.076Z,16.30
2023-04-02T06:21:03.855Z,15.90
2023-04-02T06:23:48.507Z,16.30
2023-04-02T06:26:31.054Z,16.90
2023-04-02T06:29:17.991Z,15.10
2023-04-02T06:32:02.211Z,14.80
2023-04-02T06:34:40.736Z,14.30
2023-04-02T06:37:30.236Z,14.40
2023-04-02T06:40:42.356Z,15.50
2023-04-02T06:43:33.561Z,14.80
2023-04-02T06:46:42.305Z,18.20
2023-04-02T06:49:32.697Z,19.40
2023-04-02T06:52:22.528Z,15.10
2023-04-02T06:54:58.594Z,13.50
2023-04-02T06:57:36.069Z,15.70
2023-04-02T07:00:30.871Z,15.00
2023-04-02T07:03:17.050Z,15.30
2023-04-02T07:05:57.252Z,15.30
2023-04-02T07:08:33.939Z,14.30
2023-04-02T07:11:12.750Z,16.80
2023-04-02T07:13:48.885Z,15.60
2023-04-02T07:16:27.957Z,15.40
2023-04-02T07:19:05.088Z,13.10
2023-04-02T07:21:43.282Z,14.40
2023-04-02T07:24:19.645Z,10.90
2023-04-02T07:26:55.620Z,14.40
2023-04-02T07:29:31.573Z,12.90
2023-04-02T07:32:09.221Z,14.30
2023-04-02T07:34:45.627Z,13.80
2023-04-02T07:37:22.228Z,14.70
2023-04-02T07:39:58.760Z,13.40
2023-04-02T07:42:34.809Z,14.10
2023-04-02T07:45:16.356Z,14.90
2023-04-02T07:47:52.727Z,14.20
2023-04-02T07:50:29.086Z,14.60
2023-04-02T07:53:04.487Z,13.70
2023-04-02T07:55:40.840Z,12.50
2023-04-02T07:58:17.954Z,11.20
2023-04-02T08:00:54.070Z,10.70
2023-04-02T08:03:30.591Z,11.80
2023-04-02T08:06:08.303Z,11.00
2023-04-02T08:08:45.668Z,11.70
2023-04-02T08:11:20.947Z,9.70
2023-04-02T08:13:57.238Z,10.50
2023-04-02T08:16:46.062Z,10.70
2023-04-02T08:19:22.499Z,11.80
2023-04-02T08:21:58.370Z,11.30
2023-04-02T08:24:34.725Z,11.30
2023-04-02T08:27:13.783Z,12.10
2023-04-02T08:29:50.312Z,14.10
2023-04-02T08:32:29.096Z,14.50
2023-04-02T08:35:04.775Z,12.40
2023-04-02T08:37:40.780Z,10.10
2023-04-02T08:40:29.430Z,10.00
2023-04-02T08:43:33.137Z,10.80
2023-04-02T08:46:18.003Z,10.50
2023-04-02T08:49:00.965Z,9.70
2023-04-02T08:51:40.449Z,8.50
2023-04-02T08:54:29.359Z,10.10
2023-04-02T08:57:09.842Z,9.50
2023-04-02T08:59:49.398Z,10.10
2023-04-02T09:02:40.575Z,9.80
2023-04-02T09:05:29.513Z,10.20
2023-04-02T09:08:17.228Z,9.50
2023-04-02T09:11:03.216Z,5.80
2023-04-02T09:13:46.966Z,8.50
2023-04-02T09:16:28.786Z,7.30
2023-04-02T09:19:05.012Z,5.10
2023-04-02T09:21:48.786Z,4.30
2023-04-02T09:24:25.375Z,4.20
2023-04-02T09:27:01.937Z,4.00
2023-04-02T09:29:47.842Z,6.00
2023-04-02T09:32:52.028Z,6.20
2023-04-02T09:35:31.410Z,7.90
2023-04-02T09:38:25.281Z,10.30
2023-04-02T09:41:07.280Z,11.00
2023-04-02T09:43:45.165Z,12.60
2023-04-02T09:46:27.792Z,13.40
2023-04-02T09:49:06.368Z,13.30
2023-04-02T09:51:42.901Z,13.00
2023-04-02T09:54:22.695Z,13.30
2023-04-02T09:57:09.325Z,14.10
2023-04-02T09:59:46.236Z,14.80
2023-04-02T10:02:34.877Z,16.10
2023-04-02T10:05:37.276Z,15.50
2023-04-02T10:08:30.092Z,15.00
2023-04-02T10:11:11.147Z,16.00
2023-04-02T10:13:59.603Z,15.10
2023-04-02T10:16:41.965Z,17.60
2023-04-02T10:19:32.620Z,16.20
2023-04-02T10:22:16.811Z,16.30
2023-04-02T10:24:54.042Z,16.10
2023-04-02T10:27:42.074Z,14.10
2023-04-02T10:30:26.013Z,12.60
2023-04-02T10:33:08.125Z,13.40
2023-04-02T10:35:58.322Z,13.60
2023-04-02T10:38:54.270Z,14.20
2023-04-02T10:41:40.358Z,12.40
2023-04-02T10:44:37.556Z,13.10
2023-04-02T10:47:33.293Z,11.60
2023-04-02T10:50:29.814Z,11.00
2023-04-02T10:53:17.559Z,9.40
2023-04-02T10:56:01.670Z,10.90
2023-04-02T10:58:47.991Z,8.80
2023-04-02T11:01:32.630Z,8.60
2023-04-02T11:04:19.850Z,10.00
2023-04-02T11:07:11.570Z,9.90
2023-04-02T11:09:54.876Z,8.40
2023-04-02T11:12:44.165Z,7.90
2023-04-02T11:15:24.006Z,6.60
2023-04-02T11:18:00.901Z,7.10
2023-04-02T11:21:11.082Z,8.40
2023-04-02T11:24:06.572Z,8.50
2023-04-02T11:26:49.517Z,8.50
2023-04-02T11:29:31.100Z,7.50
2023-04-02T11:32:34.685Z,8.40
2023-04-02T11:35:43.129Z,8.30
2023-04-02T11:39:04.420Z,3.50
2023-04-02T11:42:24.965Z,1.70
2023-04-02T11:45:23.719Z,1.40
2023-04-02T11:48:36.328Z,1.50
2023-04-02T11:52:02.187Z,1.30
2023-04-02T11:54:46.283Z,1.60
2023-04-02T11:57:52.460Z,1.40
2023-04-02T12:00:57.181Z,1.50
2023-04-02T12:03:54.687Z,1.50
2023-04-02T12:06:54.415Z,1.60
2023-04-02T12:09:37.099Z,1.40
2023-04-02T12:12:34.236Z,1.40
2023-04-02T12:15:32.949Z,1.70
2023-04-02T12:18:20.623Z,1.50
2023-04-02T12:20:58.807Z,1.90
2023-04-02T12:23:39.160Z,1.70
2023-04-02T12:26:42.667Z,1.20
2023-04-02T12:29:31.770Z,1.40
2023-04-02T12:32:19.366Z,1.30
2023-04-02T12:34:56.768Z,1.20
2023-04-02T12:37:34.667Z,1.30
2023-04-02T12:40:26.499Z,1.20
2023-04-02T12:43:03.161Z,1.20
2023-04-02T12:45:41.329Z,1.30
2023-04-02T12:48:20.001Z,1.20
2023-04-02T12:50:58.227Z,1.40
2023-04-02T12:53:42.851Z,1.30
2023-04-02T12:56:27.288Z,1.60
2023-04-02T12:59:06.007Z,1.30
2023-04-02T13:01:56.788Z,1.30
2023-04-02T13:04:32.765Z,1.50
2023-04-02T13:07:10.142Z,1.50
2023-04-02T13:09:51.266Z,1.30
2023-04-02T13:12:38.359Z,1.30
2023-04-02T13:15:31.641Z,1.40
2023-04-02T13:18:24.273Z,1.30
2023-04-02T13:21:07.584Z,1.30
2023-04-02T13:23:44.792Z,1.50
2023-04-02T13:26:25.003Z,1.50
2023-04-02T13:29:23.423Z,1.50
2023-04-02T13:32:02.670Z,1.10
2023-04-02T13:34:38.821Z,1.10
2023-04-02T13:37:17.802Z,1.10
2023-04-02T13:39:53.890Z,1.30
2023-04-02T13:42:30.993Z,1.30
2023-04-02T13:45:10.054Z,1.40
2023-04-02T13:47:45.775Z,1.60
2023-04-02T13:50:26.937Z,1.30
2023-04-02T13:53:09.004Z,1.30
2023-04-02T13:55:48.005Z,1.40
2023-04-02T13:58:25.504Z,1.30
2023-04-02T14:01:02.976Z,1.40
2023-04-02T14:03:40.455Z,1.30
2023-04-02T14:06:32.336Z,1.50
2023-04-02T14:09:19.788Z,1.20
2023-04-02T14:12:10.532Z,1.20
2023-04-02T14:15:17.036Z,1.20
2023-04-02T14:18:16.836Z,1.20
2023-04-02T14:21:07.003Z,1.20
2023-04-02T14:24:08.756Z,1.00
2023-04-02T14:27:05.968Z,1.10
2023-04-02T14:29:56.195Z,1.00
2023-04-02T14:32:41.499Z,1.40
2023-04-02T14:35:27.110Z,1.20
2023-04-02T14:38:21.212Z,1.20
2023-04-02T14:41:02.125Z,1.10
2023-04-02T14:43:48.458Z,1.40
2023-04-02T14:46:27.609Z,1.40
2023-04-02T14:49:12.725Z,1.20
2023-04-02T14:51:57.191Z,2.50
2023-04-02T14:54:41.125Z,1.40
2023-04-02T14:57:24.743Z,1.10
2023-04-02T15:00:09.994Z,1.20
2023-04-02T15:02:53.460Z,1.50
2023-04-02T15:05:43.065Z,1.40
2023-04-02T15:08:29.379Z,1.10
2023-04-02T15:11:09.843Z,1.30
2023-04-02T15:13:55.382Z,1.30
2023-04-02T15:16:34.240Z,1.50
2023-04-02T15:19:16.170Z,1.10
2023-04-02T15:22:09.517Z,1.30
2023-04-02T15:24:59.015Z,1.30
2023-04-02T15:27:51.556Z,1.10
2023-04-02T15:30:33.195Z,1.20
2023-04-02T15:33:49.143Z,1.10
2023-04-02T15:36:56.137Z,1.00
2023-04-02T15:39:54.966Z,0.90
2023-04-02T15:42:36.071Z,1.10
2023-04-02T15:45:40.913Z,1.10
2023-04-02T15:48:34.872Z,1.10
2023-04-02T15:51:33.450Z,1.10
2023-04-02T15:54:29.470Z,1.10
2023-04-02T15:57:25.863Z,1.10
2023-04-02T16:00:23.578Z,1.30
2023-04-02T16:03:35.648Z,1.20
2023-04-02T16:06:28.228Z,1.10
2023-04-02T16:09:17.099Z,1.30
2023-04-02T16:11:58.994Z,1.40
2023-04-02T16:14:40.122Z,1.60
2023-04-02T16:17:25.275Z,1.20
2023-04-02T16:20:20.252Z,1.10
2023-04-02T16:23:07.731Z,1.30
2023-04-02T16:25:56.551Z,1.40
2023-04-02T16:28:44.698Z,1.20
2023-04-02T16:31:29.088Z,1.00
2023-04-02T16:34:14.793Z,0.90
2023-04-02T16:37:04.711Z,1.20
2023-04-02T16:39:53.439Z,1.30
2023-04-02T16:42:45.130Z,1.10
2023-04-02T16:45:38.665Z,1.20
2023-04-02T16:48:28.619Z,1.50
2023-04-02T16:51:19.641Z,1.60
2023-04-02T16:54:05.691Z,1.50
2023-04-02T16:57:05.453Z,1.40
2023-04-02T16:59:55.468Z,1.40
2023-04-02T17:02:54.757Z,1.50
2023-04-02T17:05:45.213Z,1.30
2023-04-02T23:13:30.582Z,1.10
2023-04-02T23:16:10.449Z,1.30
2023-04-02T23:18:49.556Z,1.20
2023-04-02T23:21:25.853Z,1.20
2023-04-02T23:24:02.494Z,1.20
2023-04-02T23:26:39.340Z,1.40
2023-04-02T23:29:17.608Z,1.30
2023-04-02T23:31:54.611Z,1.30
2023-04-02T23:34:31.784Z,1.30
2023-04-02T23:37:08.953Z,1.50
2023-04-02T23:39:45.124Z,1.70
2023-04-02T23:42:21.796Z,1.40
2023-04-02T23:44:58.657Z,1.40
2023-04-02T23:47:35.504Z,1.40
2023-04-02T23:50:15.795Z,1.50
2023-04-02T23:52:52.903Z,1.20
2023-04-02T23:55:29.975Z,1.40
2023-04-02T23:58:06.421Z,1.50
